createdAt,value
2022-10-13T00:01:16.563Z,38.13
2022-10-13T00:03:45.828Z,41.92
2022-10-13T00:06:23.394Z,38.88
2022-10-13T00:08:51.832Z,34.67
2022-10-13T00:11:22.781Z,37.88
2022-10-13T00:13:52.066Z,35.47
2022-10-13T00:16:21.813Z,41.13
2022-10-13T00:18:50.717Z,37.55
2022-10-13T00:21:22.624Z,38.05
2022-10-13T00:23:52.723Z,43.00
2022-10-13T00:26:22.718Z,41.35
2022-10-13T00:28:52.720Z,37.97
2022-10-13T00:31:30.115Z,40.83
2022-10-13T00:34:02.286Z,47.05
2022-10-13T00:38:58.838Z,41.58
2022-10-13T00:41:26.975Z,40.67
2022-10-13T00:44:01.318Z,41.53
2022-10-13T00:46:32.876Z,39.00
2022-10-13T00:49:07.948Z,40.90
2022-10-13T00:51:41.153Z,47.65
2022-10-13T00:54:12.395Z,44.53
2022-10-13T00:56:41.419Z,46.45
2022-10-13T00:59:21.050Z,41.35
2022-10-13T01:01:50.324Z,38.10
2022-10-13T01:04:20.312Z,44.42
2022-10-13T01:06:49.374Z,41.08
2022-10-13T01:09:17.542Z,42.00
2022-10-13T01:11:55.294Z,49.22
2022-10-13T01:14:29.806Z,45.85
2022-10-13T01:17:27.118Z,41.22
2022-10-13T01:20:53.606Z,34.28
2022-10-13T01:23:39.778Z,41.45
2022-10-13T01:26:35.476Z,32.80
2022-10-13T01:29:22.162Z,31.13
2022-10-13T01:32:26.481Z,32.80
2022-10-13T01:35:03.578Z,31.00
2022-10-13T01:38:02.383Z,31.40
2022-10-13T01:40:53.560Z,30.38
2022-10-13T01:43:26.642Z,29.17
2022-10-13T01:46:10.269Z,29.50
2022-10-13T01:48:40.980Z,29.05
2022-10-13T01:51:13.639Z,23.80
2022-10-13T01:53:43.231Z,24.42
2022-10-13T01:56:11.485Z,31.98
2022-10-13T01:58:42.160Z,38.22
2022-10-13T02:01:41.343Z,32.42
2022-10-13T02:04:39.867Z,31.47
2022-10-13T02:07:19.804Z,32.42
2022-10-13T02:09:56.969Z,40.75
2022-10-13T02:12:36.175Z,29.73
2022-10-13T02:15:06.123Z,33.25
2022-10-13T02:17:35.216Z,28.77
2022-10-13T02:20:06.990Z,33.72
2022-10-13T02:22:43.783Z,26.80
2022-10-13T02:25:12.115Z,32.60
2022-10-13T02:27:41.038Z,26.13
2022-10-13T02:30:10.091Z,29.73
2022-10-13T02:32:38.235Z,30.80
2022-10-13T02:35:12.799Z,30.67
2022-10-13T02:37:40.952Z,30.80
2022-10-13T02:40:11.519Z,25.88
2022-10-13T02:42:39.817Z,26.52
2022-10-13T02:45:08.542Z,25.67
2022-10-13T02:47:36.654Z,26.55
2022-10-13T02:50:05.855Z,27.25
2022-10-13T02:52:34.210Z,23.45
2022-10-13T02:55:02.723Z,26.90
2022-10-13T02:57:31.051Z,26.00
2022-10-13T03:00:00.207Z,33.10
2022-10-13T03:02:29.612Z,21.45
2022-10-13T03:04:57.747Z,22.50
2022-10-13T03:07:25.935Z,22.95
2022-10-13T03:09:54.199Z,28.75
2022-10-13T03:12:22.409Z,20.88
2022-10-13T03:14:51.083Z,27.40
2022-10-13T03:17:19.408Z,26.80
2022-10-13T03:19:47.571Z,36.38
2022-10-13T03:22:19.387Z,28.88
2022-10-13T03:24:47.681Z,31.00
2022-10-13T03:27:15.832Z,28.67
2022-10-13T03:29:43.995Z,33.58
2022-10-13T03:32:12.256Z,37.80
2022-10-13T03:34:40.250Z,37.72
2022-10-13T03:37:08.499Z,34.13
2022-10-13T03:39:42.922Z,40.58
2022-10-13T03:42:12.556Z,44.53
2022-10-13T03:44:40.714Z,49.78
2022-10-13T03:47:08.828Z,50.13
2022-10-13T03:49:38.575Z,52.33
2022-10-13T03:52:07.104Z,48.78
2022-10-13T03:54:35.471Z,50.70
2022-10-13T03:57:03.668Z,58.67
2022-10-13T03:59:36.413Z,45.22
2022-10-13T04:02:05.516Z,63.58
2022-10-13T04:04:34.288Z,51.92
2022-10-13T04:07:02.904Z,53.97
2022-10-13T04:09:31.391Z,55.05
2022-10-13T04:11:59.462Z,52.60
2022-10-13T04:14:28.056Z,62.42
2022-10-13T04:17:02.117Z,62.08
2022-10-13T04:19:30.330Z,64.97
2022-10-13T04:22:02.342Z,70.32
2022-10-13T04:24:30.463Z,66.15
2022-10-13T04:26:58.703Z,51.40
2022-10-13T04:29:26.846Z,56.30
2022-10-13T04:31:55.649Z,67.47
2022-10-13T04:34:23.726Z,54.25
2022-10-13T04:36:51.955Z,61.30
2022-10-13T04:39:20.242Z,45.25
2022-10-13T04:41:50.894Z,58.55
2022-10-13T04:44:19.033Z,48.40
2022-10-13T04:46:47.264Z,45.55
2022-10-13T04:49:16.376Z,38.45
2022-10-13T04:51:44.614Z,47.83
2022-10-13T04:54:12.784Z,40.70
2022-10-13T04:56:41.048Z,37.70
2022-10-13T04:59:09.195Z,47.10
2022-10-13T05:01:37.629Z,43.33
2022-10-13T05:04:10.209Z,43.97
2022-10-13T05:06:58.802Z,38.53
2022-10-13T05:09:29.346Z,36.35
2022-10-13T05:11:57.332Z,35.05
2022-10-13T05:14:25.539Z,30.67
2022-10-13T05:16:59.513Z,36.95
2022-10-13T05:19:27.675Z,35.50
2022-10-13T05:21:57.002Z,33.67
2022-10-13T05:24:25.118Z,27.75
2022-10-13T05:26:53.105Z,29.55
2022-10-13T05:29:21.287Z,35.25
2022-10-13T05:31:49.456Z,29.10
2022-10-13T05:34:17.731Z,26.50
2022-10-13T05:36:45.933Z,34.80
2022-10-13T05:39:14.096Z,34.92
2022-10-13T05:41:42.406Z,32.13
2022-10-13T05:44:14.605Z,35.35
2022-10-13T05:46:54.798Z,36.65
2022-10-13T05:49:23.307Z,40.53
2022-10-13T05:52:13.183Z,33.55
2022-10-13T05:54:45.678Z,26.23
2022-10-13T05:57:24.955Z,30.30
2022-10-13T05:59:57.794Z,37.75
2022-10-13T06:02:31.572Z,41.83
2022-10-13T06:04:59.749Z,30.05
2022-10-13T06:07:27.973Z,35.20
2022-10-13T06:09:58.655Z,38.30
2022-10-13T06:12:26.909Z,31.42
2022-10-13T06:14:55.120Z,31.77
2022-10-13T06:17:23.313Z,32.83
2022-10-13T06:19:51.645Z,33.20
2022-10-13T06:22:20.273Z,29.85
2022-10-13T06:24:49.111Z,24.73
2022-10-13T06:27:17.471Z,31.73
2022-10-13T06:29:47.093Z,28.55
2022-10-13T06:32:15.238Z,30.25
2022-10-13T06:34:43.374Z,24.90
2022-10-13T06:37:11.509Z,27.95
2022-10-13T06:39:39.732Z,29.80
2022-10-13T06:42:07.833Z,34.15
2022-10-13T06:44:39.079Z,30.87
2022-10-13T06:47:07.636Z,27.83
2022-10-13T06:49:35.641Z,32.45
2022-10-13T06:52:04.860Z,27.13
2022-10-13T06:54:33.061Z,32.70
2022-10-13T06:57:01.215Z,31.33
2022-10-13T06:59:29.197Z,31.58
2022-10-13T07:01:57.442Z,33.78
2022-10-13T07:04:25.754Z,30.13
2022-10-13T07:06:56.054Z,23.40
2022-10-13T07:09:24.160Z,25.83
2022-10-13T07:11:52.263Z,29.42
2022-10-13T07:14:20.744Z,23.65
2022-10-13T07:16:49.438Z,26.67
2022-10-13T07:19:17.606Z,25.45
2022-10-13T07:21:45.751Z,31.63
2022-10-13T07:24:14.262Z,22.27
2022-10-13T07:26:42.523Z,27.20
2022-10-13T07:29:10.860Z,24.48
2022-10-13T07:31:39.224Z,28.42
2022-10-13T07:34:07.399Z,25.42
2022-10-13T07:36:35.966Z,31.85
2022-10-13T07:39:04.713Z,29.98
2022-10-13T07:41:33.565Z,36.47
2022-10-13T07:44:01.765Z,33.05
2022-10-13T07:46:30.089Z,34.40
2022-10-13T07:48:58.321Z,32.20
2022-10-13T07:51:26.553Z,26.65
2022-10-13T07:53:55.513Z,29.80
2022-10-13T07:56:23.719Z,34.10
2022-10-13T07:58:52.069Z,34.15
2022-10-13T08:01:20.259Z,31.83
2022-10-13T08:03:50.695Z,27.40
2022-10-13T08:06:22.009Z,31.02
2022-10-13T08:08:52.354Z,29.27
2022-10-13T08:11:21.564Z,27.88
2022-10-13T08:13:53.181Z,29.30
2022-10-13T08:16:24.571Z,31.67
2022-10-13T08:18:52.771Z,29.67
2022-10-13T08:21:56.440Z,35.00
2022-10-13T08:24:13.083Z,25.23
2022-10-13T08:26:42.859Z,29.10
2022-10-13T08:29:27.025Z,20.88
2022-10-13T08:31:56.289Z,22.17
2022-10-13T08:34:25.520Z,22.75
2022-10-13T08:36:55.152Z,21.30
2022-10-13T08:39:25.330Z,22.35
2022-10-13T08:41:54.935Z,19.95
2022-10-13T08:45:16.071Z,23.58
2022-10-13T08:47:49.523Z,21.27
2022-10-13T08:50:24.740Z,17.13
2022-10-13T08:52:55.787Z,21.77
2022-10-13T08:55:32.079Z,16.02
2022-10-13T08:58:02.360Z,14.90
2022-10-13T09:00:30.988Z,16.85
2022-10-13T09:03:24.563Z,20.50
2022-10-13T09:06:11.030Z,19.48
2022-10-13T09:08:48.481Z,22.67
2022-10-13T09:11:16.647Z,15.80
2022-10-13T09:13:44.875Z,15.48
2022-10-13T09:16:14.819Z,16.23
2022-10-13T09:18:43.064Z,18.65
2022-10-13T09:21:25.876Z,18.35
2022-10-13T09:24:07.800Z,17.70
2022-10-13T09:26:40.514Z,16.27
2022-10-13T09:29:11.559Z,31.98
2022-10-13T09:31:39.890Z,17.55
2022-10-13T09:34:21.545Z,16.83
2022-10-13T09:37:02.872Z,18.67
2022-10-13T09:39:32.962Z,22.08
2022-10-13T09:42:24.895Z,20.40
2022-10-13T09:45:19.306Z,23.13
2022-10-13T09:48:06.569Z,20.70
2022-10-13T09:50:36.221Z,20.70
2022-10-13T09:53:16.625Z,19.80
2022-10-13T09:55:44.972Z,27.73
2022-10-13T09:58:28.905Z,24.05
2022-10-13T10:00:58.515Z,28.30
2022-10-13T10:03:39.162Z,25.90
2022-10-13T10:06:12.065Z,17.08
2022-10-13T10:09:02.107Z,25.60
2022-10-13T10:11:38.211Z,30.98
2022-10-13T10:14:36.236Z,16.20
2022-10-13T10:17:32.159Z,15.55
2022-10-13T10:20:11.249Z,15.77
2022-10-13T10:22:53.390Z,15.88
2022-10-13T10:26:23.217Z,24.17
2022-10-13T10:29:20.068Z,16.75
2022-10-13T10:31:50.328Z,19.85
2022-10-13T10:35:09.986Z,14.52
2022-10-13T10:38:00.427Z,16.25
2022-10-13T10:40:57.404Z,13.82
2022-10-13T10:43:33.571Z,12.77
2022-10-13T10:46:02.342Z,23.40
2022-10-13T10:48:33.664Z,20.80
2022-10-13T10:51:02.900Z,13.55
2022-10-13T10:53:46.288Z,25.52
2022-10-13T10:56:29.842Z,22.20
2022-10-13T10:59:26.621Z,15.02
2022-10-13T11:02:28.318Z,21.33
2022-10-13T11:05:03.461Z,17.03
2022-10-13T11:07:34.292Z,17.00
2022-10-13T11:10:16.332Z,19.35
2022-10-13T11:15:28.049Z,17.67
2022-10-13T11:17:56.332Z,18.45
2022-10-13T11:20:24.406Z,16.30
2022-10-13T11:23:01.814Z,21.92
2022-10-13T11:25:40.841Z,18.05
2022-10-13T11:28:24.643Z,14.70
2022-10-13T11:30:57.489Z,12.40
2022-10-13T11:33:40.763Z,14.57
2022-10-13T11:36:46.613Z,18.70
2022-10-13T11:39:27.013Z,21.60
2022-10-13T11:42:13.608Z,20.90
2022-10-13T11:45:07.513Z,16.08
2022-10-13T11:48:23.540Z,15.73
2022-10-13T11:51:12.514Z,22.52
2022-10-13T11:54:19.689Z,14.80
2022-10-13T11:56:53.303Z,18.10
2022-10-13T11:59:24.660Z,11.65
2022-10-13T12:01:58.394Z,23.85
2022-10-13T12:04:28.781Z,10.93
2022-10-13T12:07:01.549Z,12.52
2022-10-13T12:09:31.580Z,14.23
2022-10-13T12:12:14.894Z,12.23
2022-10-13T12:14:49.065Z,18.67
2022-10-13T12:17:27.407Z,20.15
2022-10-13T12:19:59.417Z,10.57
2022-10-13T12:22:30.088Z,20.77
2022-10-13T12:25:07.337Z,14.73
2022-10-13T12:27:56.647Z,14.48
2022-10-13T12:30:27.126Z,20.10
2022-10-13T12:32:58.065Z,11.98
2022-10-13T12:35:32.493Z,17.88
2022-10-13T12:38:08.001Z,19.25
2022-10-13T12:40:36.675Z,20.25
2022-10-13T12:43:05.875Z,16.27
2022-10-13T12:45:35.830Z,30.00
2022-10-13T12:48:05.916Z,13.02
2022-10-13T12:50:38.888Z,23.80
2022-10-13T12:53:26.187Z,18.05
2022-10-13T12:55:58.270Z,12.57
2022-10-13T13:01:14.807Z,12.25
2022-10-13T13:03:44.945Z,14.75
2022-10-13T13:06:16.253Z,10.88
2022-10-13T13:08:44.751Z,20.95
2022-10-13T13:11:35.079Z,13.68
2022-10-13T13:14:36.406Z,14.05
2022-10-13T13:17:17.400Z,15.38
2022-10-13T13:19:50.846Z,18.45
2022-10-13T13:22:19.624Z,12.05
2022-10-13T13:24:49.885Z,16.33
2022-10-13T13:27:25.820Z,12.57
2022-10-13T13:29:57.201Z,14.73
2022-10-13T13:32:27.887Z,9.77
2022-10-13T13:34:56.364Z,12.80
2022-10-13T13:37:36.598Z,13.05
2022-10-13T13:40:06.818Z,25.00
2022-10-13T13:42:35.294Z,19.23
2022-10-13T13:45:03.604Z,19.73
2022-10-13T13:47:32.763Z,22.70
2022-10-13T13:50:01.179Z,10.45
2022-10-13T13:52:29.705Z,21.65
2022-10-13T13:54:58.574Z,15.68
2022-10-13T13:57:26.909Z,13.60
2022-10-13T13:59:55.238Z,18.75
2022-10-13T14:02:23.563Z,22.50
2022-10-13T14:04:51.883Z,38.40
2022-10-13T14:07:20.973Z,29.80
2022-10-13T14:09:53.805Z,15.90
2022-10-13T14:12:23.850Z,14.88
2022-10-13T14:14:52.156Z,16.48
2022-10-13T14:17:23.518Z,25.52
2022-10-13T14:19:51.796Z,23.02
2022-10-13T14:22:20.949Z,22.40
2022-10-13T14:24:49.573Z,19.83
2022-10-13T14:27:17.863Z,23.63
2022-10-13T14:29:46.257Z,21.52
2022-10-13T14:32:16.892Z,25.95
2022-10-13T14:34:45.367Z,10.40
2022-10-13T14:37:13.625Z,10.45
2022-10-13T14:39:41.996Z,20.52
2022-10-13T14:42:10.687Z,16.63
2022-10-13T14:44:39.024Z,20.55
2022-10-13T14:47:08.528Z,24.42
2022-10-13T14:49:40.084Z,29.25
2022-10-13T14:52:08.545Z,17.40
2022-10-13T14:58:57.709Z,9.05
2022-10-13T15:01:31.459Z,14.50
2022-10-13T15:04:01.170Z,13.35
2022-10-13T15:06:30.257Z,18.10
2022-10-13T15:08:59.953Z,10.43
2022-10-13T15:11:30.274Z,21.92
2022-10-13T15:13:58.604Z,18.77
2022-10-13T15:16:29.408Z,14.77
2022-10-13T15:18:57.816Z,15.45
2022-10-13T15:21:27.514Z,11.57
2022-10-13T15:23:56.923Z,21.65
2022-10-13T15:26:25.612Z,24.15
2022-10-13T15:28:54.743Z,25.10
2022-10-13T15:31:24.032Z,37.15
2022-10-13T15:33:55.706Z,138.32
2022-10-13T15:36:25.232Z,19.23
2022-10-13T15:38:53.370Z,30.55
2022-10-13T15:41:21.635Z,51.85
2022-10-13T15:43:50.484Z,29.35
2022-10-13T15:46:19.065Z,47.75
2022-10-13T15:48:48.390Z,58.33
2022-10-13T15:51:19.504Z,50.42
2022-10-13T15:53:48.720Z,25.85
2022-10-13T15:56:17.939Z,16.67
2022-10-13T15:58:46.172Z,11.98
2022-10-13T16:01:15.323Z,27.15
2022-10-13T16:03:46.497Z,15.30
2022-10-13T16:06:14.919Z,21.27
2022-10-13T16:08:43.989Z,17.80
2022-10-13T16:11:14.778Z,19.88
2022-10-13T16:13:47.193Z,15.90
2022-10-13T16:16:15.653Z,16.60
2022-10-13T16:18:44.536Z,22.52
2022-10-13T16:21:19.062Z,12.50
2022-10-13T16:23:48.614Z,15.80
2022-10-13T16:26:17.979Z,12.10
2022-10-13T16:28:47.088Z,19.00
2022-10-13T16:31:17.589Z,15.82
2022-10-13T16:33:46.721Z,20.83
2022-10-13T16:36:17.766Z,24.92
2022-10-13T16:38:47.502Z,20.95
2022-10-13T16:41:18.258Z,27.17
2022-10-13T16:43:47.483Z,21.27
2022-10-13T16:46:17.938Z,14.93
2022-10-13T16:48:47.419Z,12.10
2022-10-13T16:51:18.418Z,10.23
2022-10-13T16:54:02.796Z,22.88
2022-10-13T16:56:32.856Z,19.17
2022-10-13T16:59:03.701Z,13.60
2022-10-13T17:01:33.428Z,26.27
2022-10-13T17:04:02.073Z,17.48
2022-10-13T17:06:30.609Z,19.17
2022-10-13T17:09:00.027Z,26.98
2022-10-13T17:11:30.961Z,52.33
2022-10-13T17:14:00.410Z,24.40
2022-10-13T17:16:31.645Z,23.75
2022-10-13T17:19:00.119Z,35.38
2022-10-13T17:21:34.419Z,31.90
2022-10-13T17:24:02.592Z,14.10
2022-10-13T17:26:30.774Z,19.05
2022-10-13T17:28:59.023Z,18.73
2022-10-13T17:31:27.245Z,22.63
2022-10-13T17:33:55.438Z,17.00
2022-10-13T17:36:26.743Z,17.48
2022-10-13T17:38:56.677Z,14.38
2022-10-13T17:41:25.236Z,18.10
2022-10-13T17:43:53.698Z,21.42
2022-10-13T17:46:36.243Z,17.23
2022-10-13T17:49:06.505Z,45.92
2022-10-13T17:51:34.887Z,33.00
2022-10-13T17:54:03.065Z,12.93
2022-10-13T17:56:31.241Z,18.10
2022-10-13T17:59:00.444Z,20.23
2022-10-13T18:01:32.036Z,25.70
2022-10-13T18:04:06.596Z,14.73
2022-10-13T18:06:38.864Z,31.25
2022-10-13T18:09:14.758Z,17.08
2022-10-13T18:11:49.859Z,35.25
2022-10-13T18:14:20.927Z,26.02
2022-10-13T18:16:51.203Z,24.75
2022-10-13T18:19:20.038Z,15.82
2022-10-13T18:21:49.587Z,33.75
2022-10-13T18:24:17.804Z,28.70
2022-10-13T18:26:47.384Z,32.13
2022-10-13T18:29:15.738Z,30.15
2022-10-13T18:31:44.340Z,26.42
2022-10-13T18:34:17.854Z,23.38
2022-10-13T18:36:48.309Z,25.83
2022-10-13T18:39:24.745Z,43.90
2022-10-13T18:41:54.387Z,31.75
2022-10-13T18:44:23.691Z,44.22
2022-10-13T18:46:53.370Z,28.73
2022-10-13T18:49:21.921Z,34.35
2022-10-13T18:53:51.754Z,33.67
2022-10-13T18:56:24.628Z,23.10
2022-10-13T18:58:58.460Z,32.25
2022-10-13T19:01:29.784Z,38.28
2022-10-13T19:03:58.869Z,23.42
2022-10-13T19:06:29.468Z,30.67
2022-10-13T19:09:00.065Z,52.90
2022-10-13T19:11:29.675Z,54.65
2022-10-13T19:13:59.416Z,43.58
2022-10-13T19:16:29.662Z,46.17
2022-10-13T19:18:57.943Z,37.38
2022-10-13T19:21:26.789Z,35.45
2022-10-13T19:23:55.046Z,23.77
2022-10-13T19:26:25.979Z,31.55
2022-10-13T19:28:56.508Z,43.70
2022-10-13T19:31:27.124Z,43.03
2022-10-13T19:33:57.051Z,61.13
2022-10-13T19:36:25.165Z,36.70
2022-10-13T19:38:55.256Z,46.83
2022-10-13T19:41:24.367Z,61.25
2022-10-13T19:43:52.741Z,57.22
2022-10-13T19:46:22.995Z,98.00
2022-10-13T19:48:51.283Z,76.18
2022-10-13T19:51:19.688Z,61.20
2022-10-13T19:53:47.995Z,34.28
2022-10-13T19:56:29.572Z,56.80
2022-10-13T19:58:58.540Z,97.47
2022-10-13T20:01:26.739Z,222.15
2022-10-13T20:03:55.237Z,133.45
2022-10-13T20:06:23.924Z,61.83
2022-10-13T20:08:52.178Z,132.27
2022-10-13T20:11:24.204Z,258.63
2022-10-13T20:13:53.711Z,81.20
2022-10-13T20:16:24.164Z,117.90
2022-10-13T20:18:57.555Z,106.75
2022-10-13T20:21:27.228Z,142.10
2022-10-13T20:23:56.651Z,73.53
2022-10-13T20:26:25.580Z,101.35
2022-10-13T20:28:54.832Z,96.80
2022-10-13T20:31:23.714Z,50.75
2022-10-13T20:33:58.993Z,60.50
2022-10-13T20:36:35.999Z,85.20
2022-10-13T20:39:07.397Z,77.93
2022-10-13T20:41:35.629Z,79.53
2022-10-13T20:44:04.091Z,40.08
2022-10-13T20:46:34.706Z,61.20
2022-10-13T20:49:11.072Z,33.17
2022-10-13T20:51:42.201Z,44.13
2022-10-13T20:54:11.827Z,31.60
2022-10-13T20:56:40.401Z,61.30
2022-10-13T20:59:11.913Z,60.50
2022-10-13T21:01:40.107Z,60.20
2022-10-13T21:04:08.447Z,38.97
2022-10-13T21:06:36.791Z,73.47
2022-10-13T21:09:06.406Z,82.45
2022-10-13T21:11:35.372Z,65.95
2022-10-13T21:14:03.741Z,55.63
2022-10-13T21:16:32.076Z,34.75
2022-10-13T21:19:00.477Z,55.92
2022-10-13T21:21:30.618Z,30.45
2022-10-13T21:24:04.488Z,30.65
2022-10-13T21:26:33.692Z,59.53
2022-10-13T21:29:02.912Z,45.13
2022-10-13T21:31:31.773Z,59.05
2022-10-13T21:33:59.942Z,43.72
2022-10-13T21:36:30.691Z,44.00
2022-10-13T21:39:05.382Z,71.47
2022-10-13T21:41:33.983Z,74.68
2022-10-13T21:44:02.273Z,53.92
2022-10-13T21:46:34.559Z,30.98
2022-10-13T21:49:06.134Z,67.75
2022-10-13T21:51:40.147Z,46.53
2022-10-13T21:54:13.794Z,53.70
2022-10-13T21:56:42.661Z,34.75
2022-10-13T21:59:12.722Z,35.15
2022-10-13T22:01:41.465Z,21.23
2022-10-13T22:04:14.807Z,26.58
2022-10-13T22:06:44.049Z,27.40
2022-10-13T22:09:12.415Z,37.38
2022-10-13T22:11:41.173Z,33.58
2022-10-13T22:14:12.522Z,39.07
2022-10-13T22:16:44.105Z,31.73
2022-10-13T22:19:12.814Z,26.88
2022-10-13T22:21:50.495Z,17.35
2022-10-13T22:24:21.656Z,24.15
2022-10-13T22:26:50.958Z,19.45
2022-10-13T22:29:21.395Z,38.35
2022-10-13T22:31:50.935Z,26.45
2022-10-13T22:34:19.127Z,23.13
2022-10-13T22:36:47.451Z,21.20
2022-10-13T22:39:16.402Z,23.08
2022-10-13T22:41:44.656Z,22.70
2022-10-13T22:44:13.552Z,23.80
2022-10-13T22:46:42.200Z,23.95
2022-10-13T22:49:14.111Z,22.02
2022-10-13T22:51:42.409Z,18.33
2022-10-13T22:54:10.700Z,22.13
2022-10-13T22:56:41.031Z,18.50
2022-10-13T22:59:09.995Z,24.95
2022-10-13T23:01:38.262Z,36.03
2022-10-13T23:04:06.742Z,19.38
2022-10-13T23:06:35.774Z,20.73
2022-10-13T23:09:08.740Z,27.63
2022-10-13T23:11:37.499Z,44.50
2022-10-13T23:14:06.791Z,40.05
2022-10-13T23:16:35.431Z,42.50
2022-10-13T23:19:03.895Z,36.95
2022-10-13T23:21:32.456Z,35.47
2022-10-13T23:24:03.154Z,29.48
2022-10-13T23:26:31.766Z,32.38
2022-10-13T23:29:00.827Z,23.80
2022-10-13T23:31:29.566Z,21.40
2022-10-13T23:33:58.378Z,22.13
2022-10-13T23:36:29.780Z,21.05
2022-10-13T23:39:01.689Z,26.15
2022-10-13T23:41:30.671Z,21.27
2022-10-13T23:43:58.848Z,17.40
2022-10-13T23:46:27.172Z,16.17
2022-10-13T23:48:55.493Z,19.52
2022-10-13T23:51:26.066Z,12.75
2022-10-13T23:53:54.815Z,23.33
2022-10-13T23:56:23.127Z,27.08
2022-10-13T23:58:51.680Z,17.40
